Time,TemperatureF,DewpointF,PressureIn,WindDirection,WindDirectionDegrees,WindSpeedMPH,WindSpeedGustMPH,Humidity,HourlyPrecipIn,Conditions,Clouds,dailyrainin,SolarRadiationWatts/m^2,SoftwareType,DateUTC
2013-03-03 00:06:00,22.5,17.0,30.18,NNE,19,0.0,-999.0,78,-99.99,,,0.00,0,weatherlink.com 1.10,2013-03-03 06:06:00,
2013-03-03 00:12:00,22.7,17.0,30.18,NNE,19,0.0,-999.0,78,-99.99,,,0.00,0,weatherlink.com 1.10,2013-03-03 06:12:00,
2013-03-03 00:27:00,22.9,17.0,30.18,NNE,19,0.0,-999.0,78,-99.99,,,0.00,0,weatherlink.com 1.10,2013-03-03 06:27:00,
2013-03-03 00:42:00,22.9,17.0,30.18,NNE,19,0.0,-999.0,78,-99.99,,,0.00,0,weatherlink.com 1.10,2013-03-03 06:42:00,
2013-03-03 00:57:00,22.5,17.0,30.17,NNE,19,1.0,-999.0,78,-99.99,,,0.00,0,weatherlink.com 1.10,2013-03-03 06:57:00,
2013-03-03 01:17:00,21.8,16.0,30.16,NNE,19,0.0,-999.0,78,-99.99,,,0.00,0,weatherlink.com 1.10,2013-03-03 07:17:00,
2013-03-03 01:27:00,21.4,16.0,30.16,NNE,19,1.0,-999.0,79,-99.99,,,0.00,0,weatherlink.com 1.10,2013-03-03 07:27:00,
2013-03-03 01:42:00,21.0,16.0,30.16,NNE,19,1.0,-999.0,80,-99.99,,,0.00,0,weatherlink.com 1.10,2013-03-03 07:42:00,
2013-03-03 01:57:00,21.1,16.0,30.16,NNE,19,0.0,-999.0,81,-99.99,,,0.00,0,weatherlink.com 1.10,2013-03-03 07:57:00,
2013-03-03 02:12:00,20.5,16.0,30.15,NNE,19,1.0,-999.0,81,-99.99,,,0.00,0,weatherlink.com 1.10,2013-03-03 08:12:00,
2013-03-03 02:28:00,20.8,16.0,30.15,NNE,19,1.0,-999.0,82,-99.99,,,0.00,0,weatherlink.com 1.10,2013-03-03 08:28:00,
2013-03-03 02:42:00,21.1,16.0,30.13,NNE,19,0.0,-999.0,82,-99.99,,,0.00,0,weatherlink.com 1.10,2013-03-03 08:42:00,
2013-03-03 02:57:00,20.8,16.0,30.13,NNE,19,0.0,-999.0,82,-99.99,,,0.00,0,weatherlink.com 1.10,2013-03-03 08:57:00,
2013-03-03 03:12:00,20.0,15.0,30.12,NNE,19,0.0,-999.0,82,-99.99,,,0.00,0,weatherlink.com 1.10,2013-03-03 09:12:00,
2013-03-03 03:27:00,19.4,15.0,30.12,NNE,19,0.0,-999.0,82,-99.99,,,0.00,0,weatherlink.com 1.10,2013-03-03 09:27:00,
2013-03-03 03:42:00,18.9,14.0,30.12,NNE,19,0.0,-999.0,82,-99.99,,,0.00,0,weatherlink.com 1.10,2013-03-03 09:42:00,
2013-03-03 03:57:00,18.6,14.0,30.11,NNE,19,0.0,-999.0,83,-99.99,,,0.00,0,weatherlink.com 1.10,2013-03-03 09:57:00,
2013-03-03 04:12:00,18.1,14.0,30.10,NNE,19,0.0,-999.0,83,-99.99,,,0.00,0,weatherlink.com 1.10,2013-03-03 10:12:00,
2013-03-03 04:27:00,18.4,14.0,30.10,NNE,19,0.0,-999.0,83,-99.99,,,0.00,0,weatherlink.com 1.10,2013-03-03 10:27:00,
2013-03-03 04:47:00,18.3,14.0,30.10,NNE,19,0.0,-999.0,82,-99.99,,,0.00,0,weatherlink.com 1.10,2013-03-03 10:47:00,
2013-03-03 04:57:00,18.3,14.0,30.10,NNE,19,0.0,-999.0,82,-99.99,,,0.00,0,weatherlink.com 1.10,2013-03-03 10:57:00,
2013-03-03 05:12:00,18.3,14.0,30.10,NW,321,3.0,-999.0,82,-99.99,,,0.00,0,weatherlink.com 1.10,2013-03-03 11:12:00,
2013-03-03 05:28:00,18.3,13.0,30.10,NW,321,1.0,-999.0,81,-99.99,,,0.00,0,weatherlink.com 1.10,2013-03-03 11:28:00,
2013-03-03 05:43:00,17.5,13.0,30.10,NW,321,0.0,-999.0,81,-99.99,,,0.00,0,weatherlink.com 1.10,2013-03-03 11:43:00,
2013-03-03 05:58:00,17.3,13.0,30.11,NW,321,1.0,-999.0,82,-99.99,,,0.00,0,weatherlink.com 1.10,2013-03-03 11:58:00,
2013-03-03 06:13:00,17.5,13.0,30.10,NW,321,2.0,-999.0,82,-99.99,,,0.00,0,weatherlink.com 1.10,2013-03-03 12:13:00,
2013-03-03 06:28:00,17.7,13.0,30.10,NW,321,3.0,-999.0,82,-99.99,,,0.00,0,weatherlink.com 1.10,2013-03-03 12:28:00,
2013-03-03 06:43:00,17.5,13.0,30.11,NW,320,1.0,-999.0,81,-99.99,,,0.00,0,weatherlink.com 1.10,2013-03-03 12:43:00,
2013-03-03 07:08:00,17.2,13.0,30.11,NW,317,1.0,-999.0,82,-99.99,,,0.00,18,weatherlink.com 1.10,2013-03-03 13:08:00,
2013-03-03 07:13:00,17.2,13.0,30.11,NW,317,2.0,-999.0,82,-99.99,,,0.00,19,weatherlink.com 1.10,2013-03-03 13:13:00,
2013-03-03 07:28:00,17.2,13.0,30.11,WNW,294,2.0,-999.0,82,-99.99,,,0.00,37,weatherlink.com 1.10,2013-03-03 13:28:00,
2013-03-03 07:43:00,17.5,13.0,30.11,WNW,289,2.0,-999.0,81,-99.99,,,0.00,53,weatherlink.com 1.10,2013-03-03 13:43:00,
2013-03-03 07:58:00,18.3,13.0,30.10,WNW,296,2.0,-999.0,81,-99.99,,,0.00,95,weatherlink.com 1.10,2013-03-03 13:58:00,
2013-03-03 08:17:00,19.5,14.0,30.10,WNW,300,3.0,-999.0,80,-99.99,,,0.00,142,weatherlink.com 1.10,2013-03-03 14:17:00,
2013-03-03 08:28:00,20.5,14.0,30.10,WNW,294,5.0,-999.0,77,-99.99,,,0.00,114,weatherlink.com 1.10,2013-03-03 14:28:00,
2013-03-03 08:43:00,20.8,15.0,30.09,NW,305,6.0,-999.0,77,-99.99,,,0.00,125,weatherlink.com 1.10,2013-03-03 14:43:00,
2013-03-03 08:58:00,22.1,15.0,30.09,NNW,327,1.0,-999.0,74,-99.99,,,0.00,186,weatherlink.com 1.10,2013-03-03 14:58:00,
2013-03-03 09:13:00,23.5,16.0,30.09,NW,307,2.0,-999.0,73,-99.99,,,0.00,306,weatherlink.com 1.10,2013-03-03 15:13:00,
2013-03-03 09:28:00,25.4,17.0,30.09,NW,323,1.0,-999.0,70,-99.99,,,0.00,209,weatherlink.com 1.10,2013-03-03 15:28:00,
2013-03-03 09:43:00,26.7,17.0,30.08,NW,319,3.0,-999.0,68,-99.99,,,0.00,260,weatherlink.com 1.10,2013-03-03 15:43:00,
2013-03-03 09:58:00,27.8,18.0,30.07,NNW,347,2.0,-999.0,67,-99.99,,,0.00,329,weatherlink.com 1.10,2013-03-03 15:58:00,
2013-03-03 10:13:00,28.4,19.0,30.07,NNW,327,5.0,-999.0,68,-99.99,,,0.00,339,weatherlink.com 1.10,2013-03-03 16:13:00,
2013-03-03 10:38:00,30.0,20.0,30.05,NNW,337,3.0,-999.0,66,-99.99,,,0.00,366,weatherlink.com 1.10,2013-03-03 16:38:00,
2013-03-03 10:43:00,30.3,20.0,30.05,NW,323,5.0,-999.0,65,-99.99,,,0.00,338,weatherlink.com 1.10,2013-03-03 16:43:00,
2013-03-03 10:58:00,30.3,19.0,30.05,WNW,301,12.0,-999.0,64,-99.99,,,0.00,378,weatherlink.com 1.10,2013-03-03 16:58:00,
2013-03-03 11:13:00,30.9,20.0,30.05,North,360,4.0,-999.0,65,-99.99,,,0.00,374,weatherlink.com 1.10,2013-03-03 17:13:00,
2013-03-03 11:28:00,31.5,21.0,30.05,NW,316,6.0,-999.0,65,-99.99,,,0.00,422,weatherlink.com 1.10,2013-03-03 17:28:00,
2013-03-03 11:47:00,31.8,20.0,30.04,NW,319,6.0,-999.0,63,-99.99,,,0.00,355,weatherlink.com 1.10,2013-03-03 17:47:00,
2013-03-03 11:58:00,31.9,20.0,30.04,NW,318,7.0,-999.0,63,-99.99,,,0.00,343,weatherlink.com 1.10,2013-03-03 17:58:00,
2013-03-03 12:13:00,32.1,21.0,30.03,NNW,328,4.0,-999.0,63,-99.99,,,0.00,346,weatherlink.com 1.10,2013-03-03 18:13:00,
2013-03-03 12:28:00,32.7,21.0,30.02,NW,305,2.0,-999.0,63,-99.99,,,0.00,403,weatherlink.com 1.10,2013-03-03 18:28:00,
2013-03-03 12:43:00,32.9,21.0,30.02,NW,316,2.0,-999.0,63,-99.99,,,0.00,404,weatherlink.com 1.10,2013-03-03 18:43:00,
2013-03-03 12:58:00,33.5,21.0,30.00,NW,308,3.0,-999.0,60,-99.99,,,0.00,432,weatherlink.com 1.10,2013-03-03 18:58:00,
2013-03-03 13:13:00,33.4,22.0,29.99,WNW,293,4.0,-999.0,62,-99.99,,,0.00,478,weatherlink.com 1.10,2013-03-03 19:13:00,
2013-03-03 13:28:00,33.7,21.0,29.99,NNW,334,2.0,-999.0,60,-99.99,,,0.00,432,weatherlink.com 1.10,2013-03-03 19:28:00,
2013-03-03 13:44:00,34.3,21.0,29.98,WNW,295,6.0,-999.0,59,-99.99,,,0.00,568,weatherlink.com 1.10,2013-03-03 19:44:00,
2013-03-03 14:07:00,34.9,21.0,29.97,WNW,298,13.0,-999.0,57,-99.99,,,0.00,506,weatherlink.com 1.10,2013-03-03 20:07:00,
2013-03-03 14:14:00,34.6,21.0,29.97,NW,307,6.0,-999.0,58,-99.99,,,0.00,475,weatherlink.com 1.10,2013-03-03 20:14:00,
2013-03-03 14:29:00,34.9,21.0,29.95,WNW,303,14.0,-999.0,57,-99.99,,,0.00,446,weatherlink.com 1.10,2013-03-03 20:29:00,
2013-03-03 14:44:00,34.4,20.0,29.95,NNW,332,10.0,-999.0,57,-99.99,,,0.00,397,weatherlink.com 1.10,2013-03-03 20:44:00,
2013-03-03 14:59:00,35.0,21.0,29.95,NW,316,11.0,-999.0,56,-99.99,,,0.00,520,weatherlink.com 1.10,2013-03-03 20:59:00,
2013-03-03 15:19:00,34.7,21.0,29.94,West,281,7.0,-999.0,58,-99.99,,,0.00,392,weatherlink.com 1.10,2013-03-03 21:19:00,
2013-03-03 15:29:00,34.7,20.0,29.94,WNW,288,4.0,-999.0,56,-99.99,,,0.00,288,weatherlink.com 1.10,2013-03-03 21:29:00,
2013-03-03 15:44:00,34.1,20.0,29.94,WNW,302,6.0,-999.0,57,-99.99,,,0.00,216,weatherlink.com 1.10,2013-03-03 21:44:00,
2013-03-03 15:59:00,33.7,19.0,29.94,NW,306,6.0,-999.0,56,-99.99,,,0.00,146,weatherlink.com 1.10,2013-03-03 21:59:00,
2013-03-03 16:14:00,33.7,20.0,29.94,NW,317,4.0,-999.0,57,-99.99,,,0.00,155,weatherlink.com 1.10,2013-03-03 22:14:00,
2013-03-03 16:29:00,33.7,20.0,29.94,WNW,300,9.0,-999.0,58,-99.99,,,0.00,116,weatherlink.com 1.10,2013-03-03 22:29:00,
2013-03-03 16:44:00,33.4,20.0,29.94,NW,311,6.0,-999.0,58,-99.99,,,0.00,100,weatherlink.com 1.10,2013-03-03 22:44:00,
2013-03-03 16:59:00,33.2,21.0,29.93,NW,313,5.0,-999.0,61,-99.99,,,0.00,72,weatherlink.com 1.10,2013-03-03 22:59:00,
2013-03-03 17:14:00,32.8,22.0,29.93,WNW,290,4.0,-999.0,64,-99.99,,,0.00,46,weatherlink.com 1.10,2013-03-03 23:14:00,
2013-03-03 17:38:00,32.2,21.0,29.93,WNW,291,5.0,-999.0,64,-99.99,,,0.00,16,weatherlink.com 1.10,2013-03-03 23:38:00,
2013-03-03 17:44:00,32.1,21.0,29.93,WNW,290,3.0,-999.0,65,-99.99,,,0.00,11,weatherlink.com 1.10,2013-03-03 23:44:00,
2013-03-03 17:59:00,31.8,22.0,29.93,NW,312,4.0,-999.0,66,-99.99,,,0.00,0,weatherlink.com 1.10,2013-03-03 23:59:00,
2013-03-03 18:14:00,31.5,22.0,29.93,WNW,293,3.0,-999.0,67,-99.99,,,0.00,0,weatherlink.com 1.10,2013-03-04 00:14:00,
2013-03-03 18:29:00,31.2,22.0,29.93,NNW,336,11.0,-999.0,68,-99.99,,,0.00,0,weatherlink.com 1.10,2013-03-04 00:29:00,
2013-03-03 18:49:00,30.9,21.0,29.92,NNW,328,6.0,-999.0,67,-99.99,,,0.00,0,weatherlink.com 1.10,2013-03-04 00:49:00,
2013-03-03 18:59:00,30.9,21.0,29.92,WNW,298,9.0,-999.0,68,-99.99,,,0.00,0,weatherlink.com 1.10,2013-03-04 00:59:00,
2013-03-03 19:14:00,30.7,21.0,29.92,NW,305,9.0,-999.0,66,-99.99,,,0.00,0,weatherlink.com 1.10,2013-03-04 01:14:00,
2013-03-03 19:29:00,30.6,20.0,29.92,NW,326,6.0,-999.0,66,-99.99,,,0.00,0,weatherlink.com 1.10,2013-03-04 01:29:00,
2013-03-03 19:44:00,30.4,21.0,29.93,NW,325,6.0,-999.0,67,-99.99,,,0.00,0,weatherlink.com 1.10,2013-03-04 01:44:00,
2013-03-03 19:59:00,30.4,21.0,29.93,NW,321,3.0,-999.0,67,-99.99,,,0.00,0,weatherlink.com 1.10,2013-03-04 01:59:00,
2013-03-03 20:14:00,30.3,20.0,29.93,NNW,328,11.0,-999.0,67,-99.99,,,0.00,0,weatherlink.com 1.10,2013-03-04 02:14:00,
2013-03-03 20:29:00,30.1,20.0,29.92,NNW,329,4.0,-999.0,67,-99.99,,,0.00,0,weatherlink.com 1.10,2013-03-04 02:29:00,
2013-03-03 20:44:00,29.8,20.0,29.93,West,271,7.0,-999.0,68,-99.99,,,0.00,0,weatherlink.com 1.10,2013-03-04 02:44:00,
2013-03-03 21:08:00,29.7,21.0,29.93,NW,304,11.0,-999.0,71,-99.99,,,0.00,0,weatherlink.com 1.10,2013-03-04 03:08:00,
2013-03-03 21:14:00,29.5,22.0,29.93,NW,306,6.0,-999.0,72,-99.99,,,0.00,0,weatherlink.com 1.10,2013-03-04 03:14:00,
2013-03-03 21:29:00,29.5,22.0,29.92,WNW,298,4.0,-999.0,74,-99.99,,,0.00,0,weatherlink.com 1.10,2013-03-04 03:29:00,
2013-03-03 21:44:00,29.5,23.0,29.93,WNW,287,8.0,-999.0,75,-99.99,,,0.00,0,weatherlink.com 1.10,2013-03-04 03:44:00,
2013-03-03 21:59:00,29.3,23.0,29.93,NW,309,7.0,-999.0,76,-99.99,,,0.00,0,weatherlink.com 1.10,2013-03-04 03:59:00,
2013-03-03 22:17:00,29.0,23.0,29.92,NW,312,11.0,-999.0,77,-99.99,,,0.00,0,weatherlink.com 1.10,2013-03-04 04:17:00,
2013-03-03 22:29:00,28.8,23.0,29.92,WNW,301,6.0,-999.0,78,-99.99,,,0.00,0,weatherlink.com 1.10,2013-03-04 04:29:00,
2013-03-03 22:44:00,28.8,23.0,29.91,NW,320,9.0,-999.0,78,-99.99,,,0.00,0,weatherlink.com 1.10,2013-03-04 04:44:00,
2013-03-03 22:59:00,28.8,23.0,29.90,WNW,286,9.0,-999.0,78,-99.99,,,0.00,0,weatherlink.com 1.10,2013-03-04 04:59:00,
2013-03-03 23:14:00,28.8,23.0,29.90,NW,315,5.0,-999.0,79,-99.99,,,0.00,0,weatherlink.com 1.10,2013-03-04 05:14:00,
2013-03-03 23:29:00,28.7,23.0,29.90,WNW,289,7.0,-999.0,80,-99.99,,,0.00,0,weatherlink.com 1.10,2013-03-04 05:29:00,
2013-03-03 23:44:00,28.7,23.0,29.89,NW,311,9.0,-999.0,80,-99.99,,,0.00,0,weatherlink.com 1.10,2013-03-04 05:44:00,
2013-03-03 23:59:00,28.8,23.0,29.89,West,271,5.0,-999.0,80,-99.99,,,0.00,0,weatherlink.com 1.10,2013-03-04 05:59:00,